DLH51A EDDF-LOWS
Flight info
| Callsign | DLH51A |
|---|---|
| Flight time | N/A |
| Altitude | 29000 |
| Route | CINDY8S/18 CINDY Z74 HAREM DCT ASLEP DCT TAKUT DCT DINKU L603 OLETU T702 BADIT BADIT2R |
| Aircraft | A319/M-SDE2E3FGIJ1LORWXYZ/HB1 |
Departure
| Time | 2026-05-04 16:07 |
|---|---|
| Airport | Frankfurt Main Airport (EDDF) |
Arrival
| Time | N/A |
|---|---|
| Airport | Salzburg Airport (LOWS) |
| Time | Latitude | Longitude | Altitude | Speed | Heading |
|---|---|---|---|---|---|
| 2026-05-04 15:24 | 50.04927 | 8.58943 | 363 ft | 0 kts | 160° |
| 2026-05-04 15:44 | 50.04930 | 8.58941 | 362 ft | 3 kts | 160° |
| 2026-05-04 15:44 | 50.04955 | 8.58927 | 363 ft | 4 kts | 160° |
| 2026-05-04 15:45 | 50.04976 | 8.58917 | 367 ft | 4 kts | 192° |
| 2026-05-04 15:45 | 50.04993 | 8.58940 | 360 ft | 4 kts | 249° |
| 2026-05-04 15:45 | 50.05001 | 8.58976 | 360 ft | 4 kts | 250° |
| 2026-05-04 15:45 | 50.05003 | 8.58984 | 366 ft | 1 kts | 250° |
| 2026-05-04 15:47 | 50.05003 | 8.58982 | 360 ft | 1 kts | 249° |
| 2026-05-04 15:47 | 50.04995 | 8.58950 | 363 ft | 4 kts | 249° |
| 2026-05-04 15:48 | 50.04982 | 8.58896 | 362 ft | 6 kts | 250° |
| 2026-05-04 15:48 | 50.04965 | 8.58824 | 360 ft | 8 kts | 250° |
| 2026-05-04 15:48 | 50.04948 | 8.58755 | 360 ft | 0 kts | 250° |
| 2026-05-04 15:52 | 50.04948 | 8.58754 | 360 ft | 0 kts | 249° |
| 2026-05-04 15:52 | 50.04942 | 8.58728 | 363 ft | 6 kts | 250° |
| 2026-05-04 15:52 | 50.04919 | 8.58630 | 360 ft | 14 kts | 250° |
| 2026-05-04 15:52 | 50.04878 | 8.58461 | 361 ft | 18 kts | 249° |
| 2026-05-04 15:53 | 50.04834 | 8.58276 | 362 ft | 19 kts | 250° |
| 2026-05-04 15:53 | 50.04786 | 8.58076 | 363 ft | 21 kts | 249° |
| 2026-05-04 15:53 | 50.04726 | 8.57915 | 358 ft | 17 kts | 224° |
| 2026-05-04 15:53 | 50.04671 | 8.57749 | 364 ft | 18 kts | 249° |
| 2026-05-04 15:54 | 50.04626 | 8.57561 | 360 ft | 19 kts | 250° |
| 2026-05-04 15:54 | 50.04578 | 8.57358 | 359 ft | 21 kts | 249° |
| 2026-05-04 15:54 | 50.04534 | 8.57176 | 360 ft | 15 kts | 250° |
| 2026-05-04 15:54 | 50.04508 | 8.57065 | 361 ft | 7 kts | 250° |
| 2026-05-04 15:55 | 50.04506 | 8.57055 | 359 ft | 2 kts | 250° |
| 2026-05-04 15:55 | 50.04485 | 8.56969 | 358 ft | 13 kts | 249° |
| 2026-05-04 15:55 | 50.04444 | 8.56799 | 359 ft | 19 kts | 249° |
| 2026-05-04 15:55 | 50.04395 | 8.56594 | 361 ft | 22 kts | 250° |
| 2026-05-04 15:56 | 50.04343 | 8.56372 | 356 ft | 20 kts | 249° |
| 2026-05-04 15:56 | 50.04293 | 8.56162 | 359 ft | 21 kts | 250° |
| 2026-05-04 15:56 | 50.04239 | 8.55938 | 358 ft | 23 kts | 249° |
| 2026-05-04 15:56 | 50.04182 | 8.55699 | 356 ft | 24 kts | 249° |
| 2026-05-04 15:57 | 50.04121 | 8.55447 | 358 ft | 25 kts | 249° |
| 2026-05-04 15:57 | 50.04061 | 8.55196 | 356 ft | 25 kts | 250° |
| 2026-05-04 15:57 | 50.04000 | 8.54943 | 356 ft | 26 kts | 250° |
| 2026-05-04 15:57 | 50.03936 | 8.54672 | 353 ft | 27 kts | 249° |
| 2026-05-04 15:58 | 50.03872 | 8.54405 | 350 ft | 24 kts | 246° |
| 2026-05-04 15:58 | 50.03787 | 8.54170 | 350 ft | 26 kts | 249° |
| 2026-05-04 15:58 | 50.03724 | 8.53906 | 344 ft | 27 kts | 250° |
| 2026-05-04 15:58 | 50.03659 | 8.53636 | 347 ft | 24 kts | 249° |
| 2026-05-04 15:59 | 50.03601 | 8.53404 | 337 ft | 23 kts | 250° |
| 2026-05-04 15:59 | 50.03551 | 8.53196 | 339 ft | 20 kts | 250° |
| 2026-05-04 15:59 | 50.03504 | 8.52998 | 336 ft | 19 kts | 250° |
| 2026-05-04 15:59 | 50.03473 | 8.52878 | 335 ft | 4 kts | 246° |
| 2026-05-04 16:00 | 50.03471 | 8.52870 | 333 ft | 0 kts | 245° |
| 2026-05-04 16:00 | 50.03469 | 8.52866 | 334 ft | 1 kts | 246° |
| 2026-05-04 16:00 | 50.03461 | 8.52838 | 337 ft | 4 kts | 246° |
| 2026-05-04 16:01 | 50.03446 | 8.52784 | 333 ft | 7 kts | 247° |
| 2026-05-04 16:01 | 50.03433 | 8.52731 | 333 ft | 3 kts | 250° |
| 2026-05-04 16:01 | 50.03433 | 8.52727 | 334 ft | 0 kts | 250° |
| 2026-05-04 16:03 | 50.03432 | 8.52726 | 334 ft | 1 kts | 250° |
| 2026-05-04 16:03 | 50.03427 | 8.52704 | 333 ft | 3 kts | 250° |
| 2026-05-04 16:03 | 50.03418 | 8.52663 | 333 ft | 5 kts | 250° |
| 2026-05-04 16:04 | 50.03403 | 8.52605 | 333 ft | 6 kts | 238° |
| 2026-05-04 16:04 | 50.03376 | 8.52594 | 334 ft | 0 kts | 181° |
| 2026-05-04 16:06 | 50.03362 | 8.52593 | 332 ft | 11 kts | 181° |
| 2026-05-04 16:06 | 50.01214 | 8.52615 | 692 ft | 175 kts | 181° |
| 2026-05-04 16:07 | 49.99586 | 8.52629 | 1793 ft | 180 kts | 182° |
| 2026-05-04 16:07 | 49.95506 | 8.54580 | 3468 ft | 243 kts | 126° |
| 2026-05-04 16:08 | 49.94648 | 8.56797 | 4723 ft | 239 kts | 119° |
| 2026-05-04 16:08 | 49.93844 | 8.64827 | 7438 ft | 280 kts | 97° |
| 2026-05-04 16:09 | 49.92458 | 8.70417 | 9474 ft | 282 kts | 133° |
| 2026-05-04 16:09 | 49.89422 | 8.74500 | 10863 ft | 312 kts | 141° |
| 2026-05-04 16:10 | 49.86709 | 8.80267 | 12189 ft | 345 kts | 122° |